Time;durP1;ratioP1;P1;durP2;ratioP2;P2;SDS_P1;SDS_P2;PMS_P1;PMS_P2;Temp;Humidity;BMP_temperature;BMP_pressure;BME280_temperature;BME280_humidity;BME280_pressure;Samples;Min_cycle;Max_cycle;Signal;HPM_P1;HPM_P2
2024/03/09 00:02:13;;;;;;;5.7;3.7;;;;;;;;;;;;;
2024/03/09 00:04:38;;;;;;;6.1;4.1;;;;;;;;;;;;;
2024/03/09 00:07:03;;;;;;;7.5;4.2;;;;;;;;;;;;;
2024/03/09 00:09:29;;;;;;;7.4;4.9;;;;;;;;;;;;;
2024/03/09 00:11:53;;;;;;;9.2;4.7;;;;;;;;;;;;;
2024/03/09 00:14:18;;;;;;;6.1;3.6;;;;;;;;;;;;;
2024/03/09 00:16:43;;;;;;;6.9;4;;;;;;;;;;;;;
2024/03/09 00:19:10;;;;;;;3.8;3.2;;;;;;;;;;;;;
2024/03/09 00:21:35;;;;;;;6;4;;;;;;;;;;;;;
2024/03/09 00:23:59;;;;;;;5.7;3.6;;;;;;;;;;;;;
2024/03/09 00:26:24;;;;;;;3.6;2.5;;;;;;;;;;;;;
2024/03/09 00:28:49;;;;;;;5.2;2.5;;;;;;;;;;;;;
2024/03/09 00:31:16;;;;;;;3.3;2.4;;;;;;;;;;;;;
2024/03/09 00:33:41;;;;;;;3.2;2.2;;;;;;;;;;;;;
2024/03/09 00:36:06;;;;;;;2.4;2;;;;;;;;;;;;;
2024/03/09 00:38:30;;;;;;;2.8;2.3;;;;;;;;;;;;;
2024/03/09 00:40:55;;;;;;;2.2;1.8;;;;;;;;;;;;;
2024/03/09 00:43:20;;;;;;;1.9;1.7;;;;;;;;;;;;;
2024/03/09 00:45:45;;;;;;;2.8;1.8;;;;;;;;;;;;;
2024/03/09 00:48:10;;;;;;;2.5;1.7;;;;;;;;;;;;;
2024/03/09 00:50:35;;;;;;;3;1.7;;;;;;;;;;;;;
2024/03/09 00:53:00;;;;;;;2.1;1.7;;;;;;;;;;;;;
2024/03/09 00:55:25;;;;;;;2.4;1.8;;;;;;;;;;;;;
2024/03/09 00:57:51;;;;;;;3.6;1.9;;;;;;;;;;;;;
2024/03/09 01:00:16;;;;;;;2.8;1.9;;;;;;;;;;;;;
2024/03/09 01:02:41;;;;;;;2.2;1.8;;;;;;;;;;;;;
2024/03/09 01:05:06;;;;;;;2.2;1.6;;;;;;;;;;;;;
2024/03/09 01:07:31;;;;;;;2.9;1.8;;;;;;;;;;;;;
2024/03/09 01:09:57;;;;;;;2.5;2;;;;;;;;;;;;;
2024/03/09 01:12:21;;;;;;;2;1.5;;;;;;;;;;;;;
2024/03/09 01:14:48;;;;;;;3;1.5;;;;;;;;;;;;;
2024/03/09 01:17:11;;;;;;;1.7;1.5;;;;;;;;;;;;;
2024/03/09 01:19:36;;;;;;;2.9;1.7;;;;;;;;;;;;;
2024/03/09 01:22:05;;;;;;;1.9;1.5;;;;;;;;;;;;;
2024/03/09 01:24:27;;;;;;;2;1.5;;;;;;;;;;;;;
2024/03/09 01:26:52;;;;;;;1.9;1.3;;;;;;;;;;;;;
2024/03/09 01:29:17;;;;;;;1.8;1.2;;;;;;;;;;;;;
2024/03/09 01:31:42;;;;;;;2.2;1.4;;;;;;;;;;;;;
2024/03/09 01:34:09;;;;;;;1.4;1.3;;;;;;;;;;;;;
2024/03/09 01:36:33;;;;;;;1.4;1.3;;;;;;;;;;;;;
2024/03/09 01:38:57;;;;;;;1.9;1.4;;;;;;;;;;;;;
2024/03/09 01:41:24;;;;;;;1.3;1.2;;;;;;;;;;;;;
2024/03/09 01:43:48;;;;;;;2.5;1.6;;;;;;;;;;;;;
2024/03/09 01:46:13;;;;;;;1.8;1.4;;;;;;;;;;;;;
2024/03/09 01:48:38;;;;;;;2.8;1.3;;;;;;;;;;;;;
2024/03/09 01:51:04;;;;;;;3;1.4;;;;;;;;;;;;;
2024/03/09 01:53:28;;;;;;;1.7;1.4;;;;;;;;;;;;;
2024/03/09 01:55:58;;;;;;;1.9;1.5;;;;;;;;;;;;;
2024/03/09 01:58:19;;;;;;;2.1;1.4;;;;;;;;;;;;;
2024/03/09 02:00:44;;;;;;;2.3;1.4;;;;;;;;;;;;;
2024/03/09 02:03:12;;;;;;;2;1.6;;;;;;;;;;;;;
2024/03/09 02:05:34;;;;;;;3;1.7;;;;;;;;;;;;;
2024/03/09 02:07:59;;;;;;;2.9;1.9;;;;;;;;;;;;;
2024/03/09 02:10:25;;;;;;;2.4;1.8;;;;;;;;;;;;;
2024/03/09 02:12:50;;;;;;;2.8;1.9;;;;;;;;;;;;;
2024/03/09 02:15:16;;;;;;;3;1.7;;;;;;;;;;;;;
2024/03/09 02:17:40;;;;;;;2.2;1.8;;;;;;;;;;;;;
2024/03/09 02:20:10;;;;;;;1.9;1.6;;;;;;;;;;;;;
2024/03/09 02:22:30;;;;;;;2.7;2;;;;;;;;;;;;;
2024/03/09 02:24:56;;;;;;;2.2;1.9;;;;;;;;;;;;;
2024/03/09 02:27:20;;;;;;;2.7;2;;;;;;;;;;;;;
2024/03/09 02:29:45;;;;;;;3.5;1.9;;;;;;;;;;;;;
2024/03/09 02:32:11;;;;;;;2.6;1.8;;;;;;;;;;;;;
2024/03/09 02:34:35;;;;;;;3.7;1.7;;;;;;;;;;;;;
2024/03/09 02:37:00;;;;;;;2.8;1.7;;;;;;;;;;;;;
2024/03/09 02:39:27;;;;;;;5.2;2.2;;;;;;;;;;;;;
2024/03/09 02:41:51;;;;;;;4.5;1.8;;;;;;;;;;;;;
2024/03/09 02:44:17;;;;;;;3.9;2;;;;;;;;;;;;;
2024/03/09 02:46:41;;;;;;;2.5;1.7;;;;;;;;;;;;;
2024/03/09 02:49:06;;;;;;;3;1.8;;;;;;;;;;;;;
2024/03/09 02:51:32;;;;;;;2.5;1.7;;;;;;;;;;;;;
2024/03/09 02:53:56;;;;;;;1.9;1.7;;;;;;;;;;;;;
2024/03/09 02:56:23;;;;;;;3.3;1.9;;;;;;;;;;;;;
2024/03/09 02:58:47;;;;;;;2.2;1.7;;;;;;;;;;;;;
2024/03/09 03:01:13;;;;;;;2.7;1.8;;;;;;;;;;;;;
2024/03/09 03:03:55;;;;;;;2.9;1.7;;;;;;;;;;;;;
2024/03/09 03:06:02;;;;;;;2.4;1.7;;;;;;;;;;;;;
2024/03/09 03:08:27;;;;;;;2.3;1.8;;;;;;;;;;;;;
2024/03/09 03:10:52;;;;;;;1.9;1.6;;;;;;;;;;;;;
2024/03/09 03:13:18;;;;;;;2;1.8;;;;;;;;;;;;;
2024/03/09 03:15:43;;;;;;;2.4;1.8;;;;;;;;;;;;;
2024/03/09 03:18:09;;;;;;;3;1.9;;;;;;;;;;;;;
2024/03/09 03:20:33;;;;;;;2.7;1.8;;;;;;;;;;;;;
2024/03/09 03:22:59;;;;;;;3.4;3;;;;;;;;;;;;;
2024/03/09 03:25:24;;;;;;;4.6;3.4;;;;;;;;;;;;;
2024/03/09 03:27:49;;;;;;;3.8;3.2;;;;;;;;;;;;;
2024/03/09 03:30:15;;;;;;;3.2;2.3;;;;;;;;;;;;;
2024/03/09 03:32:39;;;;;;;2.1;1.5;;;;;;;;;;;;;
2024/03/09 03:35:05;;;;;;;2.4;1.7;;;;;;;;;;;;;
2024/03/09 03:37:29;;;;;;;1.7;1.4;;;;;;;;;;;;;
2024/03/09 03:39:57;;;;;;;2.1;1.6;;;;;;;;;;;;;
2024/03/09 03:42:21;;;;;;;2.1;1.6;;;;;;;;;;;;;
2024/03/09 03:44:46;;;;;;;1.6;1.5;;;;;;;;;;;;;
2024/03/09 03:47:10;;;;;;;1.6;1.5;;;;;;;;;;;;;
2024/03/09 03:49:35;;;;;;;1.9;1.3;;;;;;;;;;;;;
2024/03/09 03:52:00;;;;;;;2.4;1.4;;;;;;;;;;;;;
2024/03/09 03:54:25;;;;;;;1.4;1.3;;;;;;;;;;;;;
2024/03/09 03:56:51;;;;;;;2;1.4;;;;;;;;;;;;;
2024/03/09 03:59:15;;;;;;;3.2;1.5;;;;;;;;;;;;;
2024/03/09 04:02:33;;;;;;;2.6;1.4;;;;;;;;;;;;;
2024/03/09 04:04:56;;;;;;;1.6;1.4;;;;;;;;;;;;;
2024/03/09 04:07:22;;;;;;;1.7;1.6;;;;;;;;;;;;;
2024/03/09 04:09:46;;;;;;;1.6;1.5;;;;;;;;;;;;;
2024/03/09 04:12:11;;;;;;;2.5;1.4;;;;;;;;;;;;;
2024/03/09 04:14:36;;;;;;;2.7;1.6;;;;;;;;;;;;;
2024/03/09 04:17:02;;;;;;;2.1;1.6;;;;;;;;;;;;;
2024/03/09 04:19:28;;;;;;;3.1;1.5;;;;;;;;;;;;;
2024/03/09 04:21:52;;;;;;;3.2;1.6;;;;;;;;;;;;;
2024/03/09 04:24:17;;;;;;;1.8;1.4;;;;;;;;;;;;;
2024/03/09 04:26:42;;;;;;;2.1;1.4;;;;;;;;;;;;;
2024/03/09 04:29:07;;;;;;;1.7;1.6;;;;;;;;;;;;;
2024/03/09 04:31:32;;;;;;;2.7;1.5;;;;;;;;;;;;;
2024/03/09 04:33:57;;;;;;;2.8;1.5;;;;;;;;;;;;;
2024/03/09 04:36:29;;;;;;;1.9;1.4;;;;;;;;;;;;;
2024/03/09 04:38:47;;;;;;;1.5;1.4;;;;;;;;;;;;;
2024/03/09 04:41:13;;;;;;;2.4;1.7;;;;;;;;;;;;;
2024/03/09 04:43:40;;;;;;;1.7;1.5;;;;;;;;;;;;;
2024/03/09 04:46:04;;;;;;;1.7;1.4;;;;;;;;;;;;;
2024/03/09 04:48:28;;;;;;;2.4;1.4;;;;;;;;;;;;;
2024/03/09 04:50:55;;;;;;;2.8;1.5;;;;;;;;;;;;;
2024/03/09 04:53:19;;;;;;;1.9;1.5;;;;;;;;;;;;;
2024/03/09 04:55:48;;;;;;;2.1;1.5;;;;;;;;;;;;;
2024/03/09 04:58:16;;;;;;;2.4;1.6;;;;;;;;;;;;;
2024/03/09 05:00:34;;;;;;;1.7;1.5;;;;;;;;;;;;;
2024/03/09 05:02:59;;;;;;;2.3;1.4;;;;;;;;;;;;;
2024/03/09 05:05:29;;;;;;;1.8;1.4;;;;;;;;;;;;;
2024/03/09 05:07:50;;;;;;;3;1.3;;;;;;;;;;;;;
2024/03/09 05:10:17;;;;;;;2.3;1.5;;;;;;;;;;;;;
2024/03/09 05:12:41;;;;;;;2.4;1.4;;;;;;;;;;;;;
2024/03/09 05:15:05;;;;;;;2.5;1.6;;;;;;;;;;;;;
2024/03/09 05:17:30;;;;;;;2.3;1.5;;;;;;;;;;;;;
2024/03/09 05:19:55;;;;;;;2;1.5;;;;;;;;;;;;;
2024/03/09 05:22:20;;;;;;;2.5;1.6;;;;;;;;;;;;;
2024/03/09 05:24:46;;;;;;;1.9;1.6;;;;;;;;;;;;;
2024/03/09 05:27:10;;;;;;;5.2;3.5;;;;;;;;;;;;;
2024/03/09 05:29:35;;;;;;;2.3;1.6;;;;;;;;;;;;;
2024/03/09 05:32:03;;;;;;;5.5;2.9;;;;;;;;;;;;;
2024/03/09 05:34:26;;;;;;;4.5;3.1;;;;;;;;;;;;;
2024/03/09 05:36:52;;;;;;;3.1;2.4;;;;;;;;;;;;;
2024/03/09 05:39:17;;;;;;;3.4;2;;;;;;;;;;;;;
2024/03/09 05:41:41;;;;;;;2.6;1.7;;;;;;;;;;;;;
2024/03/09 05:44:06;;;;;;;3.8;2.1;;;;;;;;;;;;;
2024/03/09 05:46:31;;;;;;;3.1;2.3;;;;;;;;;;;;;
2024/03/09 05:48:56;;;;;;;4.2;2.4;;;;;;;;;;;;;
2024/03/09 05:51:21;;;;;;;3.7;2.2;;;;;;;;;;;;;
2024/03/09 05:53:49;;;;;;;4.1;3.2;;;;;;;;;;;;;
2024/03/09 05:56:12;;;;;;;3.8;3.2;;;;;;;;;;;;;
2024/03/09 05:58:37;;;;;;;4.1;2.6;;;;;;;;;;;;;
2024/03/09 06:01:02;;;;;;;3.1;2.2;;;;;;;;;;;;;
2024/03/09 06:03:27;;;;;;;3.2;2.1;;;;;;;;;;;;;
2024/03/09 06:05:52;;;;;;;4.2;2.7;;;;;;;;;;;;;
2024/03/09 06:08:17;;;;;;;5.6;2.9;;;;;;;;;;;;;
2024/03/09 06:10:43;;;;;;;4.3;2.9;;;;;;;;;;;;;
2024/03/09 06:13:08;;;;;;;3;2.1;;;;;;;;;;;;;
2024/03/09 06:15:33;;;;;;;3.3;1.9;;;;;;;;;;;;;
2024/03/09 06:17:58;;;;;;;2.3;1.7;;;;;;;;;;;;;
2024/03/09 06:20:26;;;;;;;4.7;2.6;;;;;;;;;;;;;
2024/03/09 06:22:48;;;;;;;4.5;3.5;;;;;;;;;;;;;
2024/03/09 06:25:22;;;;;;;6.3;3.7;;;;;;;;;;;;;
2024/03/09 06:27:39;;;;;;;3.3;2.6;;;;;;;;;;;;;
2024/03/09 06:30:06;;;;;;;3.1;2;;;;;;;;;;;;;
2024/03/09 06:32:29;;;;;;;3.1;2.1;;;;;;;;;;;;;
2024/03/09 06:34:55;;;;;;;2.4;2.1;;;;;;;;;;;;;
2024/03/09 06:37:19;;;;;;;3.8;2.4;;;;;;;;;;;;;
2024/03/09 06:39:44;;;;;;;2.8;2.2;;;;;;;;;;;;;
2024/03/09 06:42:10;;;;;;;3.2;2.1;;;;;;;;;;;;;
2024/03/09 06:44:34;;;;;;;3.2;2;;;;;;;;;;;;;
2024/03/09 06:46:59;;;;;;;3;2.3;;;;;;;;;;;;;
2024/03/09 06:49:25;;;;;;;2.7;2;;;;;;;;;;;;;
2024/03/09 06:51:50;;;;;;;2.5;2.3;;;;;;;;;;;;;
2024/03/09 06:54:15;;;;;;;2.9;2.6;;;;;;;;;;;;;
2024/03/09 06:56:41;;;;;;;3.5;2.7;;;;;;;;;;;;;
2024/03/09 06:59:06;;;;;;;2.7;2.2;;;;;;;;;;;;;
2024/03/09 07:01:31;;;;;;;4.2;2.3;;;;;;;;;;;;;
2024/03/09 07:04:01;;;;;;;4.2;2.5;;;;;;;;;;;;;
2024/03/09 07:06:21;;;;;;;3.4;2.7;;;;;;;;;;;;;
2024/03/09 07:08:47;;;;;;;7.4;4.8;;;;;;;;;;;;;
2024/03/09 07:11:12;;;;;;;10.8;7;;;;;;;;;;;;;
2024/03/09 07:13:37;;;;;;;5.4;3.5;;;;;;;;;;;;;
2024/03/09 07:16:02;;;;;;;5.9;4;;;;;;;;;;;;;
2024/03/09 07:18:30;;;;;;;6.1;3.6;;;;;;;;;;;;;
2024/03/09 07:20:53;;;;;;;5.2;2.9;;;;;;;;;;;;;
2024/03/09 07:23:17;;;;;;;4.4;2.7;;;;;;;;;;;;;
2024/03/09 07:25:42;;;;;;;3;2.5;;;;;;;;;;;;;
2024/03/09 07:28:08;;;;;;;3.1;2.8;;;;;;;;;;;;;
2024/03/09 07:30:33;;;;;;;5.2;2.1;;;;;;;;;;;;;
2024/03/09 07:32:58;;;;;;;2.4;1.9;;;;;;;;;;;;;
2024/03/09 07:35:27;;;;;;;3.4;2.4;;;;;;;;;;;;;
2024/03/09 07:37:48;;;;;;;4.2;1.9;;;;;;;;;;;;;
2024/03/09 07:40:13;;;;;;;4.8;2;;;;;;;;;;;;;
2024/03/09 07:42:39;;;;;;;3.3;2.1;;;;;;;;;;;;;
2024/03/09 07:45:06;;;;;;;2.1;1.5;;;;;;;;;;;;;
2024/03/09 07:47:28;;;;;;;4;1.5;;;;;;;;;;;;;
2024/03/09 07:49:54;;;;;;;2.4;1.5;;;;;;;;;;;;;
2024/03/09 07:52:19;;;;;;;1.3;1.2;;;;;;;;;;;;;
2024/03/09 07:54:44;;;;;;;4.8;1.5;;;;;;;;;;;;;
2024/03/09 07:57:11;;;;;;;1.6;1.5;;;;;;;;;;;;;
2024/03/09 07:59:34;;;;;;;1.9;1.6;;;;;;;;;;;;;
2024/03/09 08:02:00;;;;;;;1.6;1;;;;;;;;;;;;;
2024/03/09 08:04:27;;;;;;;2.3;1;;;;;;;;;;;;;
2024/03/09 08:06:50;;;;;;;1.1;0.9;;;;;;;;;;;;;
2024/03/09 08:09:15;;;;;;;2;1;;;;;;;;;;;;;
2024/03/09 08:11:40;;;;;;;1.7;0.8;;;;;;;;;;;;;
2024/03/09 08:14:05;;;;;;;1.6;0.9;;;;;;;;;;;;;
2024/03/09 08:16:32;;;;;;;2.6;0.8;;;;;;;;;;;;;
2024/03/09 08:18:55;;;;;;;2;1.1;;;;;;;;;;;;;
2024/03/09 08:21:20;;;;;;;1.8;1.5;;;;;;;;;;;;;
2024/03/09 08:23:46;;;;;;;2.7;1.4;;;;;;;;;;;;;
2024/03/09 08:26:10;;;;;;;3.7;1.6;;;;;;;;;;;;;
2024/03/09 08:28:36;;;;;;;2.1;1.7;;;;;;;;;;;;;
2024/03/09 08:31:01;;;;;;;0.9;0.9;;;;;;;;;;;;;
2024/03/09 08:33:26;;;;;;;1.5;0.8;;;;;;;;;;;;;
2024/03/09 08:35:55;;;;;;;0.6;0.5;;;;;;;;;;;;;
2024/03/09 08:38:16;;;;;;;0.7;0.7;;;;;;;;;;;;;
2024/03/09 08:40:41;;;;;;;1.3;1;;;;;;;;;;;;;
2024/03/09 08:43:06;;;;;;;1.3;0.9;;;;;;;;;;;;;
2024/03/09 08:45:33;;;;;;;1;0.8;;;;;;;;;;;;;
2024/03/09 08:47:56;;;;;;;0.7;0.6;;;;;;;;;;;;;
2024/03/09 08:50:21;;;;;;;0.7;0.7;;;;;;;;;;;;;
2024/03/09 08:52:47;;;;;;;2.3;1.6;;;;;;;;;;;;;
2024/03/09 08:55:12;;;;;;;4.2;2.2;;;;;;;;;;;;;
2024/03/09 08:57:37;;;;;;;1.4;1.1;;;;;;;;;;;;;
2024/03/09 09:00:05;;;;;;;1.6;1.4;;;;;;;;;;;;;
2024/03/09 09:02:27;;;;;;;1.5;0.9;;;;;;;;;;;;;
2024/03/09 09:04:52;;;;;;;0.9;0.8;;;;;;;;;;;;;
2024/03/09 09:07:17;;;;;;;1.6;0.7;;;;;;;;;;;;;
2024/03/09 09:09:42;;;;;;;0.8;0.6;;;;;;;;;;;;;
2024/03/09 09:12:08;;;;;;;1.1;0.7;;;;;;;;;;;;;
2024/03/09 09:14:33;;;;;;;0.5;0.5;;;;;;;;;;;;;
2024/03/09 09:16:58;;;;;;;0.5;0.5;;;;;;;;;;;;;
2024/03/09 09:19:24;;;;;;;0.7;0.7;;;;;;;;;;;;;
2024/03/09 09:21:48;;;;;;;0.6;0.6;;;;;;;;;;;;;
2024/03/09 09:24:15;;;;;;;1.5;0.9;;;;;;;;;;;;;
2024/03/09 09:26:40;;;;;;;2.5;0.7;;;;;;;;;;;;;
2024/03/09 09:29:06;;;;;;;0.8;0.6;;;;;;;;;;;;;
2024/03/09 09:31:30;;;;;;;0.7;0.6;;;;;;;;;;;;;
2024/03/09 09:33:54;;;;;;;0.7;0.7;;;;;;;;;;;;;
2024/03/09 09:36:20;;;;;;;1;0.9;;;;;;;;;;;;;
2024/03/09 09:38:45;;;;;;;2.9;0.8;;;;;;;;;;;;;
2024/03/09 09:41:10;;;;;;;3.1;0.6;;;;;;;;;;;;;
2024/03/09 09:43:35;;;;;;;0.9;0.7;;;;;;;;;;;;;
2024/03/09 09:46:00;;;;;;;0.3;0.3;;;;;;;;;;;;;
2024/03/09 09:48:26;;;;;;;0.6;0.6;;;;;;;;;;;;;
2024/03/09 09:50:50;;;;;;;1;0.8;;;;;;;;;;;;;
2024/03/09 09:53:17;;;;;;;0.6;0.5;;;;;;;;;;;;;
2024/03/09 09:55:41;;;;;;;0.6;0.5;;;;;;;;;;;;;
2024/03/09 09:58:06;;;;;;;0.3;0.3;;;;;;;;;;;;;
2024/03/09 10:00:31;;;;;;;0.7;0.5;;;;;;;;;;;;;
2024/03/09 10:02:58;;;;;;;0.4;0.4;;;;;;;;;;;;;
2024/03/09 10:05:21;;;;;;;0.5;0.5;;;;;;;;;;;;;
2024/03/09 10:07:46;;;;;;;0.6;0.4;;;;;;;;;;;;;
2024/03/09 10:10:11;;;;;;;0.2;0.2;;;;;;;;;;;;;
2024/03/09 10:12:37;;;;;;;0.8;0.4;;;;;;;;;;;;;
2024/03/09 10:15:02;;;;;;;0.3;0.3;;;;;;;;;;;;;
2024/03/09 10:17:27;;;;;;;0.2;0.2;;;;;;;;;;;;;
2024/03/09 10:19:52;;;;;;;0.4;0.4;;;;;;;;;;;;;
2024/03/09 10:22:17;;;;;;;1.2;0.4;;;;;;;;;;;;;
2024/03/09 10:24:42;;;;;;;0.2;0.2;;;;;;;;;;;;;
2024/03/09 10:27:10;;;;;;;0.5;0.4;;;;;;;;;;;;;
2024/03/09 10:29:33;;;;;;;0.3;0.3;;;;;;;;;;;;;
2024/03/09 10:32:00;;;;;;;1.2;0.4;;;;;;;;;;;;;
2024/03/09 10:34:23;;;;;;;0.4;0.4;;;;;;;;;;;;;
2024/03/09 10:36:48;;;;;;;0.2;0.2;;;;;;;;;;;;;
2024/03/09 10:39:19;;;;;;;0.2;0.2;;;;;;;;;;;;;
2024/03/09 10:41:39;;;;;;;0.3;0.2;;;;;;;;;;;;;
2024/03/09 10:44:07;;;;;;;0.3;0.3;;;;;;;;;;;;;
2024/03/09 10:46:29;;;;;;;0.2;0.2;;;;;;;;;;;;;
2024/03/09 10:48:54;;;;;;;0.8;0.2;;;;;;;;;;;;;
2024/03/09 10:51:19;;;;;;;0.4;0.4;;;;;;;;;;;;;
2024/03/09 10:53:46;;;;;;;0.3;0.3;;;;;;;;;;;;;
2024/03/09 10:56:09;;;;;;;0.4;0.3;;;;;;;;;;;;;
2024/03/09 10:58:34;;;;;;;1;0.3;;;;;;;;;;;;;
2024/03/09 11:01:00;;;;;;;0.3;0.3;;;;;;;;;;;;;
2024/03/09 11:03:25;;;;;;;0.3;0.3;;;;;;;;;;;;;
2024/03/09 11:05:52;;;;;;;1.1;0.5;;;;;;;;;;;;;
2024/03/09 11:08:15;;;;;;;0.8;0.3;;;;;;;;;;;;;
2024/03/09 11:10:41;;;;;;;0.6;0.3;;;;;;;;;;;;;
2024/03/09 11:13:05;;;;;;;0.4;0.4;;;;;;;;;;;;;
2024/03/09 11:15:31;;;;;;;0.5;0.3;;;;;;;;;;;;;
2024/03/09 11:17:55;;;;;;;0.3;0.3;;;;;;;;;;;;;
2024/03/09 11:20:20;;;;;;;0.2;0.2;;;;;;;;;;;;;
2024/03/09 11:22:47;;;;;;;0.3;0.2;;;;;;;;;;;;;
2024/03/09 11:25:12;;;;;;;0.3;0.3;;;;;;;;;;;;;
2024/03/09 11:27:38;;;;;;;0.9;0.4;;;;;;;;;;;;;
2024/03/09 11:30:05;;;;;;;0.4;0.2;;;;;;;;;;;;;
2024/03/09 11:32:28;;;;;;;0.7;0.3;;;;;;;;;;;;;
2024/03/09 11:34:53;;;;;;;0.4;0.3;;;;;;;;;;;;;
2024/03/09 11:37:17;;;;;;;0.3;0.3;;;;;;;;;;;;;
2024/03/09 11:39:43;;;;;;;0.3;0.3;;;;;;;;;;;;;
2024/03/09 11:42:08;;;;;;;0.2;0.2;;;;;;;;;;;;;
2024/03/09 11:44:33;;;;;;;0.3;0.3;;;;;;;;;;;;;
2024/03/09 11:46:57;;;;;;;0.6;0.2;;;;;;;;;;;;;
2024/03/09 11:49:24;;;;;;;0.8;0.4;;;;;;;;;;;;;
2024/03/09 11:51:48;;;;;;;0.6;0.3;;;;;;;;;;;;;
2024/03/09 11:54:13;;;;;;;0.9;0.3;;;;;;;;;;;;;
2024/03/09 11:56:38;;;;;;;0.2;0.2;;;;;;;;;;;;;
2024/03/09 11:59:06;;;;;;;0.2;0.2;;;;;;;;;;;;;
2024/03/09 12:01:29;;;;;;;0.4;0.3;;;;;;;;;;;;;
2024/03/09 12:03:54;;;;;;;0.2;0.2;;;;;;;;;;;;;
2024/03/09 12:06:19;;;;;;;1;0.3;;;;;;;;;;;;;
2024/03/09 12:08:44;;;;;;;1.6;0.4;;;;;;;;;;;;;
2024/03/09 12:11:09;;;;;;;0.3;0.3;;;;;;;;;;;;;
2024/03/09 12:13:34;;;;;;;0.3;0.3;;;;;;;;;;;;;
2024/03/09 12:15:59;;;;;;;0.3;0.3;;;;;;;;;;;;;
2024/03/09 12:18:24;;;;;;;0.2;0.2;;;;;;;;;;;;;
2024/03/09 12:20:49;;;;;;;0.2;0.2;;;;;;;;;;;;;
2024/03/09 12:23:15;;;;;;;0.3;0.3;;;;;;;;;;;;;
2024/03/09 12:25:39;;;;;;;0.6;0.4;;;;;;;;;;;;;
2024/03/09 12:28:05;;;;;;;0.5;0.4;;;;;;;;;;;;;
2024/03/09 12:30:30;;;;;;;0.3;0.3;;;;;;;;;;;;;
2024/03/09 12:32:55;;;;;;;0.4;0.4;;;;;;;;;;;;;
2024/03/09 12:35:20;;;;;;;0.4;0.3;;;;;;;;;;;;;
2024/03/09 12:37:46;;;;;;;0.9;0.3;;;;;;;;;;;;;
2024/03/09 12:40:16;;;;;;;0.9;0.3;;;;;;;;;;;;;
2024/03/09 12:42:36;;;;;;;1.7;0.5;;;;;;;;;;;;;
2024/03/09 12:45:01;;;;;;;1.1;0.3;;;;;;;;;;;;;
2024/03/09 12:47:26;;;;;;;0.4;0.3;;;;;;;;;;;;;
2024/03/09 12:49:51;;;;;;;0.2;0.2;;;;;;;;;;;;;
2024/03/09 12:52:16;;;;;;;0.4;0.4;;;;;;;;;;;;;
2024/03/09 12:54:44;;;;;;;1.6;0.4;;;;;;;;;;;;;
2024/03/09 12:57:08;;;;;;;0.3;0.3;;;;;;;;;;;;;
2024/03/09 12:59:32;;;;;;;0.2;0.2;;;;;;;;;;;;;
2024/03/09 13:01:56;;;;;;;0.3;0.3;;;;;;;;;;;;;
2024/03/09 13:04:23;;;;;;;0.4;0.4;;;;;;;;;;;;;
2024/03/09 13:06:47;;;;;;;0.3;0.3;;;;;;;;;;;;;
2024/03/09 13:09:14;;;;;;;0.4;0.3;;;;;;;;;;;;;
2024/03/09 13:11:37;;;;;;;1;0.6;;;;;;;;;;;;;
2024/03/09 13:14:04;;;;;;;0.5;0.3;;;;;;;;;;;;;
2024/03/09 13:16:28;;;;;;;0.3;0.2;;;;;;;;;;;;;
2024/03/09 13:18:53;;;;;;;0.3;0.3;;;;;;;;;;;;;
2024/03/09 13:21:20;;;;;;;0.8;0.3;;;;;;;;;;;;;
2024/03/09 13:23:43;;;;;;;0.2;0.2;;;;;;;;;;;;;
2024/03/09 13:26:12;;;;;;;1.6;0.3;;;;;;;;;;;;;
2024/03/09 13:28:37;;;;;;;0.1;0.1;;;;;;;;;;;;;
2024/03/09 13:31:03;;;;;;;1.6;0.3;;;;;;;;;;;;;
2024/03/09 13:33:24;;;;;;;1.4;0.3;;;;;;;;;;;;;
2024/03/09 13:35:54;;;;;;;1.2;0.3;;;;;;;;;;;;;
2024/03/09 13:38:14;;;;;;;0.2;0.2;;;;;;;;;;;;;
2024/03/09 13:40:39;;;;;;;1.8;1.2;;;;;;;;;;;;;
2024/03/09 13:43:04;;;;;;;1;0.3;;;;;;;;;;;;;
2024/03/09 13:45:29;;;;;;;1.1;0.7;;;;;;;;;;;;;
2024/03/09 13:47:54;;;;;;;1.5;0.2;;;;;;;;;;;;;
2024/03/09 13:50:28;;;;;;;0.3;0.3;;;;;;;;;;;;;
2024/03/09 13:52:46;;;;;;;0.3;0.3;;;;;;;;;;;;;
2024/03/09 13:55:16;;;;;;;0.3;0.3;;;;;;;;;;;;;
2024/03/09 13:57:39;;;;;;;1.6;0.2;;;;;;;;;;;;;
2024/03/09 14:00:07;;;;;;;0.4;0.3;;;;;;;;;;;;;
2024/03/09 14:02:25;;;;;;;0.2;0.2;;;;;;;;;;;;;
2024/03/09 14:04:51;;;;;;;0.6;0.3;;;;;;;;;;;;;
2024/03/09 14:07:21;;;;;;;0.4;0.3;;;;;;;;;;;;;
2024/03/09 14:09:48;;;;;;;0.3;0.2;;;;;;;;;;;;;
2024/03/09 14:12:08;;;;;;;0.3;0.2;;;;;;;;;;;;;
2024/03/09 14:14:30;;;;;;;0.7;0.4;;;;;;;;;;;;;
2024/03/09 14:16:56;;;;;;;0.3;0.3;;;;;;;;;;;;;
2024/03/09 14:19:21;;;;;;;0.2;0.2;;;;;;;;;;;;;
2024/03/09 14:21:49;;;;;;;1.1;0.5;;;;;;;;;;;;;
2024/03/09 14:24:13;;;;;;;0.3;0.3;;;;;;;;;;;;;
2024/03/09 14:26:37;;;;;;;2.3;1.4;;;;;;;;;;;;;
2024/03/09 14:29:02;;;;;;;0.8;0.7;;;;;;;;;;;;;
2024/03/09 14:31:30;;;;;;;2.1;1;;;;;;;;;;;;;
2024/03/09 14:33:52;;;;;;;0.8;0.5;;;;;;;;;;;;;
2024/03/09 14:36:18;;;;;;;1.7;1.2;;;;;;;;;;;;;
2024/03/09 14:38:42;;;;;;;0.9;0.3;;;;;;;;;;;;;
2024/03/09 14:41:09;;;;;;;0.2;0.2;;;;;;;;;;;;;
2024/03/09 14:43:33;;;;;;;2.3;1.1;;;;;;;;;;;;;
2024/03/09 14:45:57;;;;;;;1.2;0.9;;;;;;;;;;;;;
2024/03/09 14:48:27;;;;;;;0.4;0.4;;;;;;;;;;;;;
2024/03/09 14:50:47;;;;;;;1.4;0.6;;;;;;;;;;;;;
2024/03/09 14:53:15;;;;;;;0.7;0.7;;;;;;;;;;;;;
2024/03/09 14:55:37;;;;;;;0.7;0.6;;;;;;;;;;;;;
2024/03/09 14:58:07;;;;;;;0.6;0.5;;;;;;;;;;;;;
2024/03/09 15:02:53;;;;;;;0.3;0.3;;;;;;;;;;;;;
2024/03/09 15:05:18;;;;;;;0.4;0.3;;;;;;;;;;;;;
2024/03/09 15:07:43;;;;;;;0.6;0.4;;;;;;;;;;;;;
2024/03/09 15:10:08;;;;;;;0.5;0.5;;;;;;;;;;;;;
2024/03/09 15:12:33;;;;;;;0.8;0.4;;;;;;;;;;;;;
2024/03/09 15:14:58;;;;;;;0.2;0.2;;;;;;;;;;;;;
2024/03/09 15:17:24;;;;;;;0.5;0.4;;;;;;;;;;;;;
2024/03/09 15:19:50;;;;;;;1.3;0.4;;;;;;;;;;;;;
2024/03/09 15:22:15;;;;;;;0.6;0.5;;;;;;;;;;;;;
2024/03/09 15:24:39;;;;;;;1.4;0.5;;;;;;;;;;;;;
2024/03/09 15:27:05;;;;;;;0.3;0.3;;;;;;;;;;;;;
2024/03/09 15:29:30;;;;;;;0.3;0.3;;;;;;;;;;;;;
2024/03/09 15:31:56;;;;;;;1.4;0.6;;;;;;;;;;;;;
2024/03/09 15:34:19;;;;;;;1.8;1.2;;;;;;;;;;;;;
2024/03/09 15:36:44;;;;;;;4.4;1.6;;;;;;;;;;;;;
2024/03/09 15:39:11;;;;;;;4.4;2.4;;;;;;;;;;;;;
2024/03/09 15:41:35;;;;;;;1.9;0.8;;;;;;;;;;;;;
2024/03/09 15:44:01;;;;;;;0.6;0.6;;;;;;;;;;;;;
2024/03/09 15:46:25;;;;;;;0.8;0.5;;;;;;;;;;;;;
2024/03/09 15:48:52;;;;;;;0.3;0.3;;;;;;;;;;;;;
2024/03/09 15:51:17;;;;;;;0.2;0.2;;;;;;;;;;;;;
2024/03/09 15:53:41;;;;;;;0.7;0.3;;;;;;;;;;;;;
2024/03/09 15:56:06;;;;;;;1.1;0.4;;;;;;;;;;;;;
2024/03/09 15:58:31;;;;;;;1;0.4;;;;;;;;;;;;;
2024/03/09 16:01:02;;;;;;;0.4;0.4;;;;;;;;;;;;;
2024/03/09 16:03:22;;;;;;;0.2;0.2;;;;;;;;;;;;;
2024/03/09 16:05:46;;;;;;;0.6;0.3;;;;;;;;;;;;;
2024/03/09 16:08:12;;;;;;;2;0.4;;;;;;;;;;;;;
2024/03/09 16:10:36;;;;;;;0.3;0.3;;;;;;;;;;;;;
2024/03/09 16:13:01;;;;;;;0.6;0.5;;;;;;;;;;;;;
2024/03/09 16:15:27;;;;;;;0.4;0.4;;;;;;;;;;;;;
2024/03/09 16:17:52;;;;;;;1.1;0.4;;;;;;;;;;;;;
2024/03/09 16:20:28;;;;;;;0.6;0.6;;;;;;;;;;;;;
2024/03/09 16:22:43;;;;;;;0.7;0.5;;;;;;;;;;;;;
2024/03/09 16:25:08;;;;;;;1.5;0.5;;;;;;;;;;;;;
2024/03/09 16:27:32;;;;;;;0.3;0.3;;;;;;;;;;;;;
2024/03/09 16:29:57;;;;;;;0.4;0.4;;;;;;;;;;;;;
2024/03/09 16:32:22;;;;;;;1.2;1;;;;;;;;;;;;;
2024/03/09 16:34:48;;;;;;;1.9;1.3;;;;;;;;;;;;;
2024/03/09 16:37:15;;;;;;;1.3;0.6;;;;;;;;;;;;;
2024/03/09 16:39:38;;;;;;;1.9;1.3;;;;;;;;;;;;;
2024/03/09 16:42:03;;;;;;;0.7;0.6;;;;;;;;;;;;;
2024/03/09 16:44:28;;;;;;;2.7;2.2;;;;;;;;;;;;;
2024/03/09 16:46:53;;;;;;;4.3;1.7;;;;;;;;;;;;;
2024/03/09 16:49:19;;;;;;;4.1;1.6;;;;;;;;;;;;;
2024/03/09 16:51:44;;;;;;;1.7;0.9;;;;;;;;;;;;;
2024/03/09 16:54:11;;;;;;;1.6;1.2;;;;;;;;;;;;;
2024/03/09 16:56:34;;;;;;;1.4;0.9;;;;;;;;;;;;;
2024/03/09 16:59:02;;;;;;;3.8;1.6;;;;;;;;;;;;;
2024/03/09 17:01:24;;;;;;;4.5;2;;;;;;;;;;;;;
2024/03/09 17:03:49;;;;;;;4.8;2.5;;;;;;;;;;;;;
2024/03/09 17:06:16;;;;;;;5;3.6;;;;;;;;;;;;;
2024/03/09 17:08:39;;;;;;;1.6;1.5;;;;;;;;;;;;;
2024/03/09 17:11:08;;;;;;;4;2.7;;;;;;;;;;;;;
2024/03/09 17:13:30;;;;;;;3.3;2.7;;;;;;;;;;;;;
2024/03/09 17:15:58;;;;;;;3.9;3.2;;;;;;;;;;;;;
2024/03/09 17:18:20;;;;;;;2.7;1.7;;;;;;;;;;;;;
2024/03/09 17:20:45;;;;;;;2.5;1.8;;;;;;;;;;;;;
2024/03/09 17:23:10;;;;;;;1.4;0.9;;;;;;;;;;;;;
2024/03/09 17:25:35;;;;;;;1.5;1.4;;;;;;;;;;;;;
2024/03/09 17:28:00;;;;;;;1.3;1;;;;;;;;;;;;;
2024/03/09 17:30:25;;;;;;;0.8;0.8;;;;;;;;;;;;;
2024/03/09 17:32:50;;;;;;;1;0.9;;;;;;;;;;;;;
2024/03/09 17:35:21;;;;;;;0.6;0.6;;;;;;;;;;;;;
2024/03/09 17:37:41;;;;;;;2.3;0.7;;;;;;;;;;;;;
2024/03/09 17:40:12;;;;;;;0.7;0.5;;;;;;;;;;;;;
2024/03/09 17:42:31;;;;;;;0.4;0.4;;;;;;;;;;;;;
2024/03/09 17:44:56;;;;;;;1.6;0.7;;;;;;;;;;;;;
2024/03/09 17:47:23;;;;;;;1.4;0.7;;;;;;;;;;;;;
2024/03/09 17:49:47;;;;;;;0.8;0.6;;;;;;;;;;;;;
2024/03/09 17:52:12;;;;;;;1.5;0.9;;;;;;;;;;;;;
2024/03/09 17:54:39;;;;;;;1.3;1.1;;;;;;;;;;;;;
2024/03/09 17:57:02;;;;;;;1.9;1;;;;;;;;;;;;;
2024/03/09 17:59:27;;;;;;;2;1;;;;;;;;;;;;;
2024/03/09 18:01:53;;;;;;;1.8;1;;;;;;;;;;;;;
2024/03/09 18:04:17;;;;;;;2.4;1;;;;;;;;;;;;;
2024/03/09 18:06:44;;;;;;;2.9;1.3;;;;;;;;;;;;;
2024/03/09 18:09:08;;;;;;;2.7;2.2;;;;;;;;;;;;;
2024/03/09 18:11:33;;;;;;;3.1;2.3;;;;;;;;;;;;;
2024/03/09 18:13:59;;;;;;;2.4;1.9;;;;;;;;;;;;;
2024/03/09 18:16:23;;;;;;;3.4;2.6;;;;;;;;;;;;;
2024/03/09 18:18:49;;;;;;;1.5;1.4;;;;;;;;;;;;;
2024/03/09 18:21:13;;;;;;;3.2;1.2;;;;;;;;;;;;;
2024/03/09 18:23:38;;;;;;;2;1.6;;;;;;;;;;;;;
2024/03/09 18:26:06;;;;;;;8;5.6;;;;;;;;;;;;;
2024/03/09 18:28:29;;;;;;;5.5;3.9;;;;;;;;;;;;;
2024/03/09 18:30:54;;;;;;;6.4;5;;;;;;;;;;;;;
2024/03/09 18:33:19;;;;;;;5;3.6;;;;;;;;;;;;;
2024/03/09 18:35:46;;;;;;;4.6;3;;;;;;;;;;;;;
2024/03/09 18:38:13;;;;;;;1.4;1.1;;;;;;;;;;;;;
2024/03/09 18:40:36;;;;;;;1.8;1.1;;;;;;;;;;;;;
2024/03/09 18:43:02;;;;;;;2.9;1.3;;;;;;;;;;;;;
2024/03/09 18:45:28;;;;;;;4.2;1.8;;;;;;;;;;;;;
2024/03/09 18:47:50;;;;;;;2.6;2.3;;;;;;;;;;;;;
2024/03/09 18:50:15;;;;;;;5.7;3.1;;;;;;;;;;;;;
2024/03/09 18:52:40;;;;;;;2.9;1.4;;;;;;;;;;;;;
2024/03/09 18:55:05;;;;;;;2.5;1.2;;;;;;;;;;;;;
2024/03/09 18:57:30;;;;;;;3.8;2.4;;;;;;;;;;;;;
2024/03/09 18:59:55;;;;;;;5.2;2.9;;;;;;;;;;;;;
2024/03/09 19:02:21;;;;;;;7.7;3.7;;;;;;;;;;;;;
2024/03/09 19:04:46;;;;;;;5.5;3.5;;;;;;;;;;;;;
2024/03/09 19:07:11;;;;;;;4.4;2.3;;;;;;;;;;;;;
2024/03/09 19:09:36;;;;;;;1.9;1.4;;;;;;;;;;;;;
2024/03/09 19:12:03;;;;;;;0.7;0.7;;;;;;;;;;;;;
2024/03/09 19:14:26;;;;;;;2.3;1.3;;;;;;;;;;;;;
2024/03/09 19:16:51;;;;;;;1.1;0.9;;;;;;;;;;;;;
2024/03/09 19:19:16;;;;;;;1.2;1;;;;;;;;;;;;;
2024/03/09 19:21:42;;;;;;;0.8;0.8;;;;;;;;;;;;;
2024/03/09 19:24:06;;;;;;;3.6;1.7;;;;;;;;;;;;;
2024/03/09 19:26:31;;;;;;;2.9;1.8;;;;;;;;;;;;;
2024/03/09 19:28:56;;;;;;;11.6;8.8;;;;;;;;;;;;;
2024/03/09 19:31:22;;;;;;;38.7;20;;;;;;;;;;;;;
2024/03/09 19:33:49;;;;;;;6.8;4.3;;;;;;;;;;;;;
2024/03/09 19:36:12;;;;;;;7.7;4.8;;;;;;;;;;;;;
2024/03/09 19:38:37;;;;;;;11.6;4.8;;;;;;;;;;;;;
2024/03/09 19:41:02;;;;;;;6.3;3.6;;;;;;;;;;;;;
2024/03/09 19:43:28;;;;;;;5;3.1;;;;;;;;;;;;;
2024/03/09 19:45:55;;;;;;;3.2;2.2;;;;;;;;;;;;;
2024/03/09 19:48:17;;;;;;;4.1;2.6;;;;;;;;;;;;;
2024/03/09 19:50:42;;;;;;;4;2.3;;;;;;;;;;;;;
2024/03/09 19:53:10;;;;;;;4.2;2.6;;;;;;;;;;;;;
2024/03/09 19:55:33;;;;;;;4.5;2.4;;;;;;;;;;;;;
2024/03/09 19:57:59;;;;;;;4;2.1;;;;;;;;;;;;;
2024/03/09 20:00:28;;;;;;;2.9;2.1;;;;;;;;;;;;;
2024/03/09 20:02:50;;;;;;;2.1;1.7;;;;;;;;;;;;;
2024/03/09 20:05:15;;;;;;;2.4;1.8;;;;;;;;;;;;;
2024/03/09 20:07:40;;;;;;;2.1;1.6;;;;;;;;;;;;;
2024/03/09 20:10:05;;;;;;;15.8;8.2;;;;;;;;;;;;;
2024/03/09 20:12:29;;;;;;;18.9;10.1;;;;;;;;;;;;;
2024/03/09 20:14:54;;;;;;;3.9;2.2;;;;;;;;;;;;;
2024/03/09 20:17:20;;;;;;;4.4;2;;;;;;;;;;;;;
2024/03/09 20:19:46;;;;;;;2.1;1.4;;;;;;;;;;;;;
2024/03/09 20:22:10;;;;;;;3.4;2.3;;;;;;;;;;;;;
2024/03/09 20:24:35;;;;;;;3.5;2;;;;;;;;;;;;;
2024/03/09 20:27:00;;;;;;;4;2.1;;;;;;;;;;;;;
2024/03/09 20:29:25;;;;;;;5.7;3.2;;;;;;;;;;;;;
2024/03/09 20:31:50;;;;;;;6;2.6;;;;;;;;;;;;;
2024/03/09 20:34:15;;;;;;;3.3;2.4;;;;;;;;;;;;;